createdAt,value
2023-02-27T00:00:15.223Z,3.61
2023-02-27T00:02:47.595Z,3.72
2023-02-27T00:05:15.126Z,3.71
2023-02-27T00:07:42.672Z,3.74
2023-02-27T00:10:11.246Z,3.68
2023-02-27T00:12:39.182Z,3.63
2023-02-27T00:15:07.492Z,3.61
2023-02-27T00:17:34.774Z,3.64
2023-02-27T00:20:01.724Z,3.59
2023-02-27T00:22:28.946Z,3.69
2023-02-27T00:24:56.073Z,3.69
2023-02-27T00:27:23.401Z,3.70
2023-02-27T00:29:51.380Z,3.57
2023-02-27T00:32:19.157Z,3.68
2023-02-27T00:34:47.403Z,3.64
2023-02-27T00:37:14.419Z,3.65
2023-02-27T00:39:41.832Z,3.63
2023-02-27T00:42:09.358Z,3.65
2023-02-27T00:44:36.670Z,3.70
2023-02-27T00:47:03.899Z,3.61
2023-02-27T00:49:32.648Z,3.65
2023-02-27T00:52:00.261Z,3.57
2023-02-27T00:54:27.405Z,3.74
2023-02-27T00:56:54.742Z,3.66
2023-02-27T00:59:22.211Z,3.54
2023-02-27T01:01:49.464Z,3.64
2023-02-27T01:04:16.568Z,3.69
2023-02-27T01:06:43.643Z,3.80
2023-02-27T01:09:11.153Z,3.87
2023-02-27T01:11:38.230Z,3.78
2023-02-27T01:14:05.403Z,3.78
2023-02-27T01:16:32.612Z,3.69
2023-02-27T01:19:00.042Z,3.64
2023-02-27T01:21:27.223Z,3.58
2023-02-27T01:23:54.429Z,3.48
2023-02-27T01:26:21.377Z,3.38
2023-02-27T01:28:48.624Z,3.49
2023-02-27T01:31:15.885Z,3.41
2023-02-27T01:33:43.030Z,3.43
2023-02-27T01:36:10.224Z,3.46
2023-02-27T01:38:37.523Z,3.49
2023-02-27T01:41:07.350Z,3.37
2023-02-27T01:43:35.284Z,3.44
2023-02-27T01:46:02.245Z,3.23
2023-02-27T01:48:29.172Z,3.18
2023-02-27T01:51:01.758Z,3.09
2023-02-27T01:53:30.766Z,3.03
2023-02-27T01:56:01.323Z,2.97
2023-02-27T01:58:29.782Z,2.93
2023-02-27T02:00:57.249Z,2.93
2023-02-27T02:03:38.067Z,2.86
2023-02-27T02:06:07.423Z,2.80
2023-02-27T02:08:41.386Z,2.82
2023-02-27T02:11:09.317Z,2.75
2023-02-27T02:13:37.572Z,2.67
2023-02-27T02:16:32.092Z,2.73
2023-02-27T02:19:23.903Z,2.69
2023-02-27T02:22:38.627Z,2.62
2023-02-27T02:25:39.926Z,2.42
2023-02-27T02:28:44.562Z,2.38
2023-02-27T02:31:11.469Z,2.38
2023-02-27T02:34:05.446Z,2.31
2023-02-27T02:37:03.194Z,2.27
2023-02-27T02:39:49.153Z,2.06
2023-02-27T02:42:28.537Z,1.93
2023-02-27T02:45:15.740Z,1.93
2023-02-27T02:47:52.033Z,1.97
2023-02-27T02:50:22.743Z,2.12
2023-02-27T02:53:19.104Z,2.17
2023-02-27T02:56:24.987Z,2.01
2023-02-27T02:59:08.132Z,1.91
2023-02-27T03:01:54.403Z,1.81
2023-02-27T03:04:29.162Z,1.68
2023-02-27T03:07:13.615Z,1.64
2023-02-27T03:09:45.682Z,1.71
2023-02-27T03:12:14.764Z,1.83
2023-02-27T03:14:47.885Z,1.73
2023-02-27T03:17:35.084Z,1.81
2023-02-27T03:20:09.357Z,1.85
2023-02-27T03:22:39.194Z,1.86
2023-02-27T03:25:08.525Z,1.88
2023-02-27T03:27:45.289Z,1.93
2023-02-27T03:30:22.936Z,1.98
2023-02-27T03:33:01.863Z,1.89
2023-02-27T03:35:49.477Z,1.75
2023-02-27T03:38:23.687Z,1.72
2023-02-27T03:41:22.896Z,1.71
2023-02-27T03:44:28.685Z,1.68
2023-02-27T03:46:56.145Z,1.66
2023-02-27T03:49:23.492Z,1.62
2023-02-27T03:51:50.647Z,1.59
2023-02-27T03:54:21.776Z,1.62
2023-02-27T03:57:04.996Z,1.62
2023-02-27T03:59:32.944Z,1.56
2023-02-27T04:02:01.266Z,1.51
2023-02-27T04:04:32.376Z,1.49
2023-02-27T04:07:37.730Z,1.57
2023-02-27T04:10:28.425Z,1.58
2023-02-27T04:13:01.220Z,1.51
2023-02-27T04:15:40.816Z,1.45
2023-02-27T04:18:10.689Z,1.52
2023-02-27T04:21:16.319Z,1.58
2023-02-27T04:24:11.875Z,1.51
2023-02-27T04:27:02.927Z,1.46
2023-02-27T04:29:54.802Z,1.31
2023-02-27T04:32:25.823Z,1.24
2023-02-27T04:34:57.724Z,1.24
2023-02-27T04:37:34.102Z,1.25
2023-02-27T04:40:06.234Z,1.33
2023-02-27T04:42:36.258Z,1.41
2023-02-27T04:45:06.404Z,1.44
2023-02-27T04:47:47.344Z,1.51
2023-02-27T04:50:19.827Z,1.55
2023-02-27T04:52:53.685Z,1.45
2023-02-27T04:55:24.698Z,1.31
2023-02-27T04:57:57.621Z,1.28
2023-02-27T05:00:26.130Z,1.22
2023-02-27T05:03:16.337Z,1.27
2023-02-27T05:05:44.306Z,1.28
2023-02-27T05:08:21.746Z,1.27
2023-02-27T05:10:59.330Z,1.32
2023-02-27T05:13:36.533Z,1.25
2023-02-27T05:16:13.753Z,1.27
2023-02-27T05:18:40.812Z,1.25
2023-02-27T05:21:13.760Z,1.20
2023-02-27T05:23:40.785Z,1.24
2023-02-27T05:26:17.305Z,1.27
2023-02-27T05:28:50.511Z,1.39
2023-02-27T05:31:44.085Z,1.39
2023-02-27T05:34:18.115Z,1.43
2023-02-27T05:36:52.555Z,1.39
2023-02-27T05:39:21.784Z,1.34
2023-02-27T05:41:52.607Z,1.30
2023-02-27T05:44:23.378Z,1.37
2023-02-27T05:46:56.757Z,1.39
2023-02-27T05:49:46.057Z,1.40
2023-02-27T05:52:16.928Z,1.38
2023-02-27T05:54:50.643Z,1.40
2023-02-27T05:57:23.196Z,1.38
2023-02-27T06:00:20.230Z,1.23
2023-02-27T06:02:47.301Z,0.99
2023-02-27T06:05:16.761Z,0.79
2023-02-27T06:07:43.771Z,0.78
2023-02-27T06:10:15.803Z,0.76
2023-02-27T06:12:42.982Z,0.85
2023-02-27T06:15:10.410Z,1.02
2023-02-27T06:17:38.134Z,1.20
2023-02-27T06:20:07.021Z,1.31
2023-02-27T06:22:34.532Z,1.43
2023-02-27T06:25:02.164Z,1.57
2023-02-27T06:27:29.245Z,1.53
2023-02-27T06:29:57.762Z,1.61
2023-02-27T06:32:26.035Z,1.58
2023-02-27T06:34:53.820Z,1.56
2023-02-27T06:37:21.999Z,1.60
2023-02-27T06:39:49.241Z,1.64
2023-02-27T06:42:17.048Z,1.67
2023-02-27T06:44:44.770Z,1.68
2023-02-27T06:47:11.948Z,1.70
2023-02-27T06:49:39.214Z,1.73
2023-02-27T06:52:06.516Z,1.78
2023-02-27T06:54:34.263Z,1.81
2023-02-27T06:57:01.548Z,1.87
2023-02-27T06:59:28.426Z,1.99
2023-02-27T07:01:55.597Z,2.02
2023-02-27T07:04:22.785Z,1.94
2023-02-27T07:07:34.420Z,1.91
2023-02-27T07:09:37.509Z,1.86
2023-02-27T07:12:05.248Z,1.90
2023-02-27T07:14:32.519Z,1.93
2023-02-27T07:17:03.387Z,2.04
2023-02-27T07:19:35.873Z,2.03
2023-02-27T07:22:03.579Z,2.26
2023-02-27T07:24:30.347Z,2.60
2023-02-27T07:26:57.347Z,2.94
2023-02-27T07:29:24.208Z,3.11
2023-02-27T07:31:51.572Z,3.20
2023-02-27T07:34:18.644Z,3.31
2023-02-27T07:36:46.022Z,3.47
2023-02-27T07:39:13.619Z,3.63
2023-02-27T07:41:40.525Z,3.82
2023-02-27T07:44:08.880Z,3.61
2023-02-27T07:46:36.208Z,3.70
2023-02-27T07:49:03.119Z,3.52
2023-02-27T07:51:30.034Z,3.47
2023-02-27T07:53:58.656Z,3.47
2023-02-27T07:56:27.009Z,3.48
2023-02-27T07:58:53.909Z,3.51
2023-02-27T08:01:20.952Z,3.62
2023-02-27T08:03:48.120Z,3.57
2023-02-27T08:06:15.084Z,3.66
2023-02-27T08:08:42.358Z,3.64
2023-02-27T08:11:09.533Z,3.78
2023-02-27T08:16:23.841Z,4.17
2023-02-27T08:18:50.583Z,4.34
2023-02-27T08:21:17.532Z,4.80
2023-02-27T08:23:44.362Z,5.09
2023-02-27T08:26:11.566Z,5.13
2023-02-27T08:28:38.326Z,5.36
2023-02-27T08:31:07.016Z,5.74
2023-02-27T08:33:34.470Z,5.53
2023-02-27T08:36:01.492Z,5.71
2023-02-27T08:38:28.467Z,5.63
2023-02-27T08:40:55.787Z,5.85
2023-02-27T08:43:23.606Z,5.80
2023-02-27T08:45:51.631Z,5.25
2023-02-27T08:48:18.817Z,5.51
2023-02-27T08:50:46.632Z,5.83
2023-02-27T08:53:14.165Z,5.84
2023-02-27T08:55:42.216Z,5.75
2023-02-27T08:58:10.498Z,5.48
2023-02-27T09:00:37.308Z,5.75
2023-02-27T09:03:04.374Z,6.02
2023-02-27T09:05:35.422Z,6.40
2023-02-27T09:08:03.313Z,6.05
2023-02-27T09:10:32.192Z,6.31
2023-02-27T09:12:59.691Z,5.90
2023-02-27T09:15:26.756Z,5.92
2023-02-27T09:17:56.679Z,6.11
2023-02-27T09:20:23.806Z,6.51
2023-02-27T09:22:50.938Z,6.70
2023-02-27T09:25:18.061Z,6.77
2023-02-27T09:27:45.683Z,7.26
2023-02-27T09:30:13.038Z,7.04
2023-02-27T09:32:40.023Z,6.11
2023-02-27T09:35:07.466Z,6.71
2023-02-27T09:37:34.488Z,7.14
2023-02-27T09:40:01.940Z,7.14
2023-02-27T09:42:36.090Z,7.11
2023-02-27T09:45:06.228Z,7.11
2023-02-27T09:47:40.374Z,7.37
2023-02-27T09:50:12.064Z,7.46
2023-02-27T09:52:39.609Z,7.51
2023-02-27T09:55:12.517Z,7.21
2023-02-27T09:58:08.488Z,7.33
2023-02-27T10:00:49.160Z,7.80
2023-02-27T10:03:31.457Z,8.01
2023-02-27T10:06:06.250Z,7.85
2023-02-27T10:08:50.409Z,7.84
2023-02-27T10:11:24.076Z,8.05
2023-02-27T10:14:29.791Z,8.15
2023-02-27T10:16:58.139Z,8.48
2023-02-27T10:19:31.825Z,8.74
2023-02-27T10:22:00.422Z,8.07
2023-02-27T10:24:41.482Z,8.28
2023-02-27T10:27:14.692Z,7.82
2023-02-27T10:29:41.807Z,8.34
2023-02-27T10:32:25.775Z,8.74
2023-02-27T10:35:06.628Z,8.23
2023-02-27T10:37:34.416Z,7.90
2023-02-27T10:40:04.862Z,7.55
2023-02-27T10:42:35.705Z,8.05
2023-02-27T10:45:05.132Z,8.69
2023-02-27T10:47:32.765Z,9.03
2023-02-27T10:50:00.481Z,8.91
2023-02-27T10:52:27.535Z,8.91
2023-02-27T10:54:54.459Z,9.41
2023-02-27T10:57:41.307Z,8.33
2023-02-27T11:00:25.204Z,8.48
2023-02-27T11:02:52.719Z,8.68
2023-02-27T11:05:29.917Z,9.28
2023-02-27T11:07:59.888Z,9.51
2023-02-27T11:10:28.581Z,8.62
2023-02-27T11:13:05.606Z,8.42
2023-02-27T11:15:37.775Z,8.65
2023-02-27T11:18:31.401Z,9.36
2023-02-27T11:21:12.176Z,8.75
2023-02-27T11:23:52.134Z,9.16
2023-02-27T11:26:34.659Z,9.20
2023-02-27T11:29:15.356Z,9.04
2023-02-27T11:31:48.395Z,8.62
2023-02-27T11:34:21.943Z,9.00
2023-02-27T11:36:50.862Z,8.30
2023-02-27T11:39:35.719Z,8.14
2023-02-27T11:42:26.833Z,7.86
2023-02-27T11:44:57.616Z,8.21
2023-02-27T11:47:32.157Z,8.14
2023-02-27T11:50:09.156Z,8.24
2023-02-27T11:52:50.932Z,8.43
2023-02-27T11:55:21.942Z,8.57
2023-02-27T11:57:54.943Z,8.58
2023-02-27T12:00:59.113Z,7.65
2023-02-27T12:03:31.880Z,7.48
2023-02-27T12:06:00.159Z,7.83
2023-02-27T12:08:46.112Z,8.30
2023-02-27T12:11:45.484Z,8.29
2023-02-27T12:14:21.684Z,9.12
2023-02-27T12:16:54.652Z,8.98
2023-02-27T12:19:32.032Z,7.88
2023-02-27T12:22:15.802Z,8.33
2023-02-27T12:24:49.234Z,7.78
2023-02-27T12:27:38.453Z,7.48
2023-02-27T12:30:20.356Z,7.27
2023-02-27T12:32:54.224Z,7.56
2023-02-27T12:35:28.724Z,7.61
2023-02-27T12:37:56.386Z,7.83
2023-02-27T12:40:31.298Z,8.01
2023-02-27T12:43:23.593Z,8.47
2023-02-27T12:45:56.869Z,8.65
2023-02-27T12:48:36.966Z,8.49
2023-02-27T12:51:22.123Z,8.26
2023-02-27T12:54:23.960Z,8.03
2023-02-27T12:56:56.921Z,8.62
2023-02-27T12:59:45.691Z,8.29
2023-02-27T13:02:32.911Z,8.38
2023-02-27T13:05:16.454Z,7.89
2023-02-27T13:08:08.795Z,7.65
2023-02-27T13:11:06.306Z,8.63
2023-02-27T13:13:46.861Z,9.02
2023-02-27T13:16:30.921Z,8.16
2023-02-27T13:19:06.932Z,7.83
2023-02-27T13:21:38.742Z,7.46
2023-02-27T13:24:11.958Z,7.97
2023-02-27T13:26:43.132Z,7.66
2023-02-27T13:29:17.543Z,7.98
2023-02-27T13:32:02.067Z,8.36
2023-02-27T13:34:48.636Z,7.42
2023-02-27T13:37:15.776Z,7.77
2023-02-27T13:39:53.017Z,7.91
2023-02-27T13:42:26.303Z,7.83
2023-02-27T13:45:01.565Z,7.82
2023-02-27T13:47:31.958Z,8.31
2023-02-27T13:50:25.631Z,7.84
2023-02-27T13:52:52.962Z,7.90
2023-02-27T13:55:40.105Z,7.66
2023-02-27T13:58:17.046Z,7.38
2023-02-27T14:00:54.454Z,7.03
2023-02-27T14:03:25.920Z,6.82
2023-02-27T14:05:55.267Z,6.89
2023-02-27T14:08:46.463Z,7.00
2023-02-27T14:11:23.371Z,7.30
2023-02-27T14:13:50.286Z,7.61
2023-02-27T14:16:42.156Z,7.58
2023-02-27T14:19:26.216Z,7.33
2023-02-27T14:22:13.089Z,6.79
2023-02-27T14:25:00.972Z,6.95
2023-02-27T14:27:51.122Z,7.05
2023-02-27T14:30:37.034Z,7.67
2023-02-27T14:33:14.154Z,7.86
2023-02-27T14:35:46.001Z,8.05
2023-02-27T14:38:15.952Z,7.74
2023-02-27T14:41:23.378Z,7.53
2023-02-27T14:43:56.527Z,7.51
2023-02-27T14:46:29.011Z,7.55
2023-02-27T14:48:58.367Z,7.17
2023-02-27T14:51:25.730Z,7.25
2023-02-27T14:54:25.952Z,7.28
2023-02-27T14:57:07.140Z,7.33
2023-02-27T14:59:41.813Z,7.43
2023-02-27T15:02:28.638Z,7.33
2023-02-27T15:05:13.663Z,7.10
2023-02-27T15:07:40.743Z,7.02
2023-02-27T15:10:10.396Z,7.10
2023-02-27T15:12:38.334Z,7.17
2023-02-27T15:15:07.838Z,7.08
2023-02-27T15:17:40.449Z,7.32
2023-02-27T15:20:31.867Z,7.29
2023-02-27T15:23:22.883Z,7.18
2023-02-27T15:25:49.854Z,7.27
2023-02-27T15:28:22.776Z,7.18
2023-02-27T15:30:51.349Z,7.25
2023-02-27T15:33:18.933Z,7.51
2023-02-27T15:35:46.417Z,7.19
2023-02-27T15:38:42.300Z,7.12
2023-02-27T15:41:10.789Z,7.20
2023-02-27T15:43:37.507Z,7.01
2023-02-27T15:46:04.681Z,6.98
2023-02-27T15:48:32.541Z,7.14
2023-02-27T15:51:01.049Z,7.14
2023-02-27T15:53:30.308Z,7.02
2023-02-27T15:56:04.385Z,7.22
2023-02-27T15:58:34.278Z,7.35
2023-02-27T16:01:08.909Z,7.31
2023-02-27T16:03:55.966Z,7.34
2023-02-27T16:06:32.654Z,7.20
2023-02-27T16:09:03.631Z,6.95
2023-02-27T16:11:35.448Z,6.89
2023-02-27T16:14:02.430Z,6.90
2023-02-27T16:16:38.817Z,6.95
2023-02-27T16:19:29.571Z,7.00
2023-02-27T16:22:04.369Z,7.02
2023-02-27T16:24:34.675Z,6.99
2023-02-27T16:27:01.903Z,6.97
2023-02-27T16:29:35.457Z,6.99
2023-02-27T16:32:02.757Z,7.00
2023-02-27T16:34:44.545Z,6.73
2023-02-27T16:37:31.465Z,6.70
2023-02-27T16:39:58.333Z,6.71
2023-02-27T16:42:25.802Z,6.66
2023-02-27T16:44:53.483Z,6.82
2023-02-27T16:47:20.438Z,6.55
2023-02-27T16:49:47.734Z,6.59
2023-02-27T16:52:14.695Z,6.53
2023-02-27T16:54:41.369Z,6.54
2023-02-27T16:57:09.697Z,6.67
2023-02-27T16:59:39.967Z,6.59
2023-02-27T17:02:13.456Z,6.66
2023-02-27T17:04:44.250Z,6.60
2023-02-27T17:07:15.983Z,6.65
2023-02-27T17:09:47.201Z,6.52
2023-02-27T17:12:14.355Z,6.48
2023-02-27T17:14:41.217Z,6.39
2023-02-27T17:17:08.115Z,6.30
2023-02-27T17:19:35.183Z,6.32
2023-02-27T17:22:02.327Z,6.39
2023-02-27T17:24:29.860Z,6.23
2023-02-27T17:26:56.835Z,6.21
2023-02-27T17:29:24.388Z,6.16
2023-02-27T17:31:51.668Z,6.19
2023-02-27T17:34:18.801Z,6.13
2023-02-27T17:36:45.830Z,6.10
2023-02-27T17:39:14.390Z,6.08
2023-02-27T17:41:42.989Z,6.00
2023-02-27T17:44:11.668Z,6.01
2023-02-27T17:46:39.405Z,5.84
2023-02-27T17:49:06.629Z,5.83
2023-02-27T17:51:33.818Z,5.87
2023-02-27T17:54:02.219Z,6.06
2023-02-27T17:56:29.797Z,5.97
2023-02-27T17:58:58.095Z,5.97
2023-02-27T18:01:26.363Z,5.85
2023-02-27T18:03:54.916Z,5.83
2023-02-27T18:06:23.241Z,5.99
2023-02-27T18:08:50.428Z,5.92
2023-02-27T18:11:19.479Z,5.88
2023-02-27T18:13:47.177Z,5.80
2023-02-27T18:16:14.628Z,5.82
2023-02-27T18:18:42.793Z,5.71
2023-02-27T18:21:11.574Z,5.80
2023-02-27T18:23:38.978Z,5.72
2023-02-27T18:26:05.991Z,5.70
2023-02-27T18:28:33.035Z,5.61
2023-02-27T18:31:00.297Z,5.49
2023-02-27T18:33:27.592Z,5.42
2023-02-27T18:35:54.752Z,5.48
2023-02-27T18:38:21.523Z,5.44
2023-02-27T18:40:48.965Z,5.36
2023-02-27T18:43:16.251Z,5.30
2023-02-27T18:45:43.407Z,5.51
2023-02-27T18:48:10.409Z,5.42
2023-02-27T18:50:37.390Z,5.44
2023-02-27T18:53:05.224Z,5.41
2023-02-27T18:55:32.040Z,5.49
2023-02-27T18:57:59.216Z,5.44
2023-02-27T19:00:26.299Z,5.37
2023-02-27T19:02:53.415Z,5.22
2023-02-27T19:05:20.490Z,5.18
2023-02-27T19:07:47.387Z,5.24
2023-02-27T19:10:15.314Z,5.20
2023-02-27T19:12:42.807Z,5.20
2023-02-27T19:15:12.347Z,5.18
2023-02-27T19:17:39.818Z,5.07
2023-02-27T19:20:07.780Z,5.12
2023-02-27T19:22:34.925Z,5.05
2023-02-27T19:25:02.045Z,5.08
2023-02-27T19:27:29.065Z,4.99
2023-02-27T19:29:55.739Z,4.97
2023-02-27T19:32:23.070Z,4.96
2023-02-27T19:34:49.896Z,4.97
2023-02-27T19:37:17.698Z,4.91
2023-02-27T19:39:45.576Z,4.88
2023-02-27T19:42:13.204Z,4.93
2023-02-27T19:44:40.721Z,4.88
2023-02-27T19:47:08.178Z,4.97
2023-02-27T19:49:35.535Z,4.87
2023-02-27T19:52:03.181Z,4.82
2023-02-27T19:54:30.824Z,4.79
2023-02-27T19:56:57.968Z,4.73
2023-02-27T19:59:25.510Z,4.72
2023-02-27T20:01:53.584Z,4.70
2023-02-27T20:04:22.690Z,4.71
2023-02-27T20:06:53.325Z,4.64
2023-02-27T20:09:21.209Z,4.77
2023-02-27T20:11:52.711Z,4.82
2023-02-27T20:14:20.090Z,4.63
2023-02-27T20:16:47.325Z,4.62
2023-02-27T20:19:16.706Z,4.63
2023-02-27T20:21:44.636Z,4.59
2023-02-27T20:24:12.784Z,4.57
2023-02-27T20:26:42.644Z,4.60
2023-02-27T20:29:15.153Z,4.59
2023-02-27T20:31:45.849Z,4.63
2023-02-27T20:34:15.984Z,4.62
2023-02-27T20:36:43.875Z,4.59
2023-02-27T20:39:11.894Z,4.55
2023-02-27T20:41:40.375Z,4.62
2023-02-27T20:44:11.687Z,4.57
2023-02-27T20:46:41.086Z,4.51
2023-02-27T20:49:08.686Z,4.56
2023-02-27T20:51:37.756Z,4.48
2023-02-27T20:54:08.048Z,4.36
2023-02-27T20:56:38.645Z,4.45
2023-02-27T20:59:08.468Z,4.55
2023-02-27T21:01:38.278Z,4.53
2023-02-27T21:04:06.251Z,4.47
2023-02-27T21:06:35.057Z,4.40
2023-02-27T21:09:05.526Z,4.43
2023-02-27T21:11:33.435Z,4.40
2023-02-27T21:14:05.230Z,4.38
2023-02-27T21:16:32.815Z,4.37
2023-02-27T21:18:59.988Z,4.36
2023-02-27T21:21:30.542Z,4.51
2023-02-27T21:23:58.369Z,4.55
2023-02-27T21:26:28.684Z,4.56
2023-02-27T21:28:58.337Z,4.57
2023-02-27T21:31:27.781Z,4.64
2023-02-27T21:33:55.248Z,4.67
2023-02-27T21:36:26.861Z,4.73
2023-02-27T21:38:59.071Z,4.87
2023-02-27T21:41:27.211Z,4.81
2023-02-27T21:44:14.900Z,4.88
2023-02-27T21:46:42.126Z,4.81
2023-02-27T21:49:15.604Z,4.72
2023-02-27T21:51:43.272Z,4.63
2023-02-27T21:54:12.049Z,4.64
2023-02-27T21:56:42.003Z,4.63
2023-02-27T21:59:10.050Z,4.58
2023-02-27T22:01:37.649Z,4.47
2023-02-27T22:04:05.374Z,4.36
2023-02-27T22:06:34.203Z,4.47
2023-02-27T22:09:05.228Z,4.46
2023-02-27T22:11:33.362Z,4.36
2023-02-27T22:14:00.868Z,4.35
2023-02-27T22:16:28.417Z,4.47
2023-02-27T22:18:55.649Z,4.39
2023-02-27T22:21:25.467Z,4.28
2023-02-27T22:23:53.705Z,4.21
2023-02-27T22:26:24.472Z,4.18
2023-02-27T22:28:52.746Z,4.09
2023-02-27T22:31:23.927Z,4.08
2023-02-27T22:33:54.365Z,4.05
2023-02-27T22:36:27.008Z,4.10
2023-02-27T22:38:54.098Z,4.00
2023-02-27T22:41:33.728Z,4.00
2023-02-27T22:44:02.452Z,4.01
2023-02-27T22:46:32.302Z,4.06
2023-02-27T22:49:23.291Z,4.06
2023-02-27T22:51:52.241Z,4.08
2023-02-27T22:54:21.324Z,3.93
2023-02-27T22:56:50.461Z,3.88
2023-02-27T22:59:18.099Z,3.93
2023-02-27T23:01:45.127Z,3.95
2023-02-27T23:04:12.868Z,4.07
2023-02-27T23:06:40.928Z,4.12
2023-02-27T23:09:11.964Z,4.22
2023-02-27T23:11:39.303Z,4.31
2023-02-27T23:14:06.322Z,4.36
2023-02-27T23:16:33.564Z,4.52
2023-02-27T23:19:00.962Z,4.62
2023-02-27T23:21:36.849Z,4.74
2023-02-27T23:24:05.856Z,4.62
2023-02-27T23:26:36.005Z,4.67
2023-02-27T23:29:03.232Z,4.70
2023-02-27T23:31:32.212Z,4.66
2023-02-27T23:34:00.782Z,4.68
2023-02-27T23:36:27.754Z,4.70
2023-02-27T23:38:55.032Z,4.63
2023-02-27T23:41:22.174Z,4.64
2023-02-27T23:43:54.424Z,4.64
2023-02-27T23:46:21.801Z,4.61
2023-02-27T23:48:48.873Z,4.69
2023-02-27T23:51:16.124Z,4.69
2023-02-27T23:53:43.304Z,4.61
2023-02-27T23:56:15.577Z,4.60
2023-02-27T23:58:42.698Z,4.66
